Nearby METAR Reports

 

KOJC - Olathe/Executive, Kansas, USA
Distance from station: S 9mi, 15km
Updated: Sat, 22-Sep-2018 5:53pm CDT
Clear
Clear
 Wind from ESE
Wind: ESE 3 mph , 6 km/h
Temperature: 72°F , 22°C
Dew Point: 52°F , 11°C
Humidity: 50%
Barometer: 30.11 inHg , 1019.6 hPa
Clouds: Clear
Visibility: 10 miles , 16 km
2018/09/22 22:53 KOJC 222253Z 12003KT 10SM CLR 22/11 A3011 RMK AO2 SLP192 T02170106
KMKC - Kansas City/Dntn, Missouri, USA
Distance from station: NE 12mi, 20km
Updated: Sat, 22-Sep-2018 5:54pm CDT
Clear
Clear
 Wind from E
Wind: E 9 mph , 15 km/h
Temperature: 75°F , 24°C
Dew Point: 46°F , 8°C
Humidity: 36%
Barometer: 30.10 inHg , 1019.3 hPa
Clouds: Clear
Visibility: 10 miles , 16 km
2018/09/22 22:54 KMKC 222254Z 10008KT 10SM CLR 24/08 A3010 RMK AO2 SLP190 T02390083
 
KIXD - Olathe/Industria, Kansas, USA
Distance from station: SSW 14mi, 22km
Updated: Sat, 22-Sep-2018 5:53pm CDT
Clear
Clear
 Wind from E
Wind: E 6 mph , 9 km/h
Temperature: 73°F , 23°C
Dew Point: 52°F , 11°C
Humidity: 47%
Barometer: 30.12 inHg , 1020 hPa
Clouds: Clear
Visibility: 10 miles , 16 km
2018/09/22 22:53 KIXD 222253Z 10005KT 10SM CLR 23/11 A3012 RMK AO2 SLP194 T02280111
KLXT - Lees Summit Muni, Missouri, USA
Distance from station: E 21mi, 33km
Updated: Sat, 22-Sep-2018 5:53pm CDT
Clear
Clear
 Wind from ESE
Wind: ESE 8 mph , 13 km/h
Temperature: 73°F , 23°C
Dew Point: 50°F , 10°C
Humidity: 44%
Barometer: 30.12 inHg , 1020 hPa
Clouds: Clear
Visibility: 10 miles , 16 km
2018/09/22 22:53 KLXT 222253Z AUTO 11007KT 10SM CLR 23/10 A3012 RMK AO2 SLP195 T02280100
 
KMCI - Kansas City/Intl, Missouri, USA
Distance from station: N 22mi, 35km
Updated: Sat, 22-Sep-2018 5:53pm CDT
Clear
Clear
 Wind from ESE
Wind: ESE 8 mph , 13 km/h
Temperature: 72°F , 22°C
Dew Point: 46°F , 8°C
Humidity: 41%
Barometer: 30.12 inHg , 1020 hPa
Clouds: Clear
Visibility: 10 miles , 16 km
2018/09/22 22:53 KMCI 222253Z 12007KT 10SM CLR 22/08 A3012 RMK AO2 SLP193 T02170083
KLWC - Lawrence, Kansas, USA
Distance from station: W 25mi, 40km
Updated: Sat, 22-Sep-2018 5:52pm CDT
Clear
Clear
 Wind from E
Wind: E 3 mph , 6 km/h
Temperature: 73°F , 23°C
Dew Point: 50°F , 10°C
Humidity: 44%
Barometer: 30.11 inHg , 1019.6 hPa
Clouds: Clear
Visibility: 10 miles , 16 km
2018/09/22 22:52 KLWC 222252Z AUTO 09003KT 10SM CLR 23/10 A3011 RMK AO2 SLP192 T02330100
 
KGPH - Mosby, Missouri, USA
Distance from station: NE 34mi, 54km
Updated: Sat, 22-Sep-2018 5:55pm CDT
Clear
Clear
 Wind from E
Wind: E 5 mph , 7 km/h
Temperature: 73°F , 23°C
Dew Point: 45°F , 7°C
Humidity: 36%
Barometer: 30.11 inHg , 1019.6 hPa
Clouds: Clear
Visibility: 10 miles , 16 km
2018/09/22 22:55 KGPH 222255Z AUTO 08004KT 10SM CLR 23/07 A3011 RMK AO2
KTOP - Topeka, Kansas, USA
Distance from station: W 48mi, 77km
Updated: Sat, 22-Sep-2018 5:53pm CDT
Clear
Clear
 Wind from E
Wind: E 7 mph , 11 km/h
Temperature: 75°F , 24°C
Dew Point: 46°F , 8°C
Humidity: 36%
Barometer: 30.10 inHg , 1019.3 hPa
Clouds: Clear
Visibility: 10 miles , 16 km
2018/09/22 22:53 KTOP 222253Z 08006KT 10SM CLR 24/08 A3010 RMK AO2 SLP190 T02390083
 
KFOE - Topeka/Forbes, Kansas, USA
Distance from station: W 48mi, 78km
Updated: Sat, 22-Sep-2018 5:53pm CDT
Clear
Clear
 Wind from E
Wind: E 5 mph , 7 km/h
Temperature: 73°F , 23°C
Dew Point: 48°F , 9°C
Humidity: 41%
Barometer: 30.11 inHg , 1019.6 hPa
Clouds: Clear
Visibility: 10 miles , 16 km
2018/09/22 22:53 KFOE 222253Z 09004KT 10SM CLR 23/09 A3011 RMK AO2 SLP192 T02280094